Hlavní strana
METAR-TAF:

METAR-TAF

Letiště :

Thomson-McDuffie County Airport

Thomson, Georgie, Spojené státy americké

zeměpisná šířka: 33-31-46N, zeměpisná délka: 082-30-59W, výška: 152 m

Aktuální stav počasí

Zpráva byla vytvořena před 5 minutami, v 11:35 UTC
Západoseverozápadní vítr 3 kt
Teplota 22°C
Vlhkost vzduchu 83%
Tlak 1022 hPa
Viditelnost: 16.1 km
Jasno

METAR: KHQU 241135Z AUTO 29003KT 10SM CLR 22/19 A3018 RMK AO2 T02180189

Čas: 07:40 (11:40 UTC)


TAF: chybějící

Stav a předpovědi počasí z více než 4 000 letišť (zprávy METAR a TAF).

Červené a žluté tečky na mapě představují dostupné meteorologické stanice.

Když kurzor umístíte na tečku, zobrazí se název stanice.

Pak kliknutím zobrazíte stav a předpověď počasí.

Chcete-li změnit mapu, kliknutím na zelené tlačítko se znaménkem +mapu přiblížíte, kliknutím na zelené tlačítko se znaménkem – mapu oddálíte a kliknutím na zelené šipky přejdete na sousední mapy.


METAR-TAF: